createdAt,value
2022-08-20T00:02:43.168Z,15.20
2022-08-20T00:05:55.972Z,15.35
2022-08-20T00:08:59.185Z,16.45
2022-08-20T00:12:01.762Z,16.10
2022-08-20T00:15:06.916Z,13.38
2022-08-20T00:18:09.903Z,17.17
2022-08-20T00:21:19.072Z,13.52
2022-08-20T00:24:21.872Z,17.38
2022-08-20T00:27:24.348Z,16.30
2022-08-20T00:30:27.463Z,18.30
2022-08-20T00:33:29.943Z,17.15
2022-08-20T00:36:32.941Z,15.73
2022-08-20T00:39:36.194Z,15.52
2022-08-20T00:42:49.992Z,14.70
2022-08-20T00:45:55.701Z,16.63
2022-08-20T00:48:58.755Z,16.67
2022-08-20T00:52:03.559Z,15.02
2022-08-20T00:55:07.007Z,14.13
2022-08-20T00:58:09.961Z,13.53
2022-08-20T01:01:13.419Z,14.50
2022-08-20T01:04:16.016Z,16.67
2022-08-20T01:07:20.877Z,15.65
2022-08-20T01:10:28.522Z,11.93
2022-08-20T01:13:31.924Z,15.50
2022-08-20T01:16:35.385Z,14.60
2022-08-20T01:19:48.106Z,11.45
2022-08-20T01:23:21.720Z,15.68
2022-08-20T01:26:32.492Z,13.13
2022-08-20T01:29:39.712Z,14.30
2022-08-20T01:32:42.083Z,16.35
2022-08-20T01:35:45.104Z,15.05
2022-08-20T01:38:53.183Z,13.43
2022-08-20T01:42:03.178Z,13.95
2022-08-20T01:45:09.408Z,16.00
2022-08-20T01:48:14.302Z,14.57
2022-08-20T01:51:23.508Z,13.68
2022-08-20T01:54:27.259Z,16.17
2022-08-20T01:57:29.808Z,14.20
2022-08-20T02:00:34.941Z,14.47
2022-08-20T02:03:40.742Z,13.85
2022-08-20T02:06:57.749Z,14.15
2022-08-20T02:10:01.158Z,14.38
2022-08-20T02:13:05.815Z,14.80
2022-08-20T02:16:08.820Z,15.40
2022-08-20T02:19:16.757Z,13.95
2022-08-20T02:22:29.561Z,14.48
2022-08-20T02:25:35.705Z,13.27
2022-08-20T02:28:38.172Z,12.85
2022-08-20T02:32:23.436Z,12.30
2022-08-20T02:35:10.499Z,13.52
2022-08-20T02:38:15.820Z,9.98
2022-08-20T02:41:18.551Z,11.98
2022-08-20T02:44:21.567Z,11.32
2022-08-20T02:47:25.467Z,13.20
2022-08-20T02:50:28.594Z,12.02
2022-08-20T02:53:34.404Z,11.95
2022-08-20T02:56:36.802Z,12.95
2022-08-20T02:59:40.336Z,10.80
2022-08-20T03:02:42.838Z,9.80
2022-08-20T03:05:45.360Z,12.68
2022-08-20T03:08:47.948Z,12.93
2022-08-20T03:11:50.422Z,12.57
2022-08-20T03:14:52.793Z,11.65
2022-08-20T03:17:55.389Z,15.07
2022-08-20T03:20:57.946Z,13.63
2022-08-20T03:24:00.321Z,14.20
2022-08-20T03:27:02.769Z,11.77
2022-08-20T03:30:09.817Z,13.10
2022-08-20T03:33:12.390Z,11.33
2022-08-20T03:36:14.873Z,11.13
2022-08-20T03:39:23.252Z,15.32
2022-08-20T03:42:26.855Z,15.40
2022-08-20T03:45:30.057Z,17.17
2022-08-20T03:48:39.134Z,13.00
2022-08-20T03:51:57.950Z,11.10
2022-08-20T03:55:00.905Z,13.98
2022-08-20T03:58:06.421Z,14.13
2022-08-20T04:01:09.049Z,13.48
2022-08-20T04:04:31.312Z,12.77
2022-08-20T04:07:33.817Z,14.20
2022-08-20T04:10:37.401Z,12.95
2022-08-20T04:13:42.626Z,14.07
2022-08-20T04:16:46.464Z,11.63
2022-08-20T04:19:51.472Z,13.90
2022-08-20T04:22:56.357Z,13.07
2022-08-20T04:26:02.012Z,14.73
2022-08-20T04:29:05.136Z,13.55
2022-08-20T04:32:08.234Z,13.27
2022-08-20T04:35:18.267Z,15.07
2022-08-20T04:38:22.815Z,12.68
2022-08-20T04:41:25.195Z,15.80
2022-08-20T04:44:28.159Z,16.20
2022-08-20T04:47:34.747Z,13.60
2022-08-20T04:50:39.312Z,12.90
2022-08-20T04:53:42.935Z,17.27
2022-08-20T04:56:45.586Z,15.23
2022-08-20T04:59:47.979Z,14.73
2022-08-20T05:02:53.363Z,15.43
2022-08-20T05:05:56.993Z,14.47
2022-08-20T05:09:00.693Z,17.67
2022-08-20T05:12:03.323Z,15.35
2022-08-20T05:15:06.135Z,13.13
2022-08-20T05:18:09.512Z,16.98
2022-08-20T05:21:12.149Z,16.57
2022-08-20T05:24:18.084Z,14.77
2022-08-20T05:27:24.917Z,18.02
2022-08-20T05:30:34.167Z,13.25
2022-08-20T05:33:38.853Z,19.38
2022-08-20T05:36:45.492Z,19.23
2022-08-20T05:39:49.521Z,14.00
2022-08-20T05:42:53.870Z,12.38
2022-08-20T05:45:58.521Z,16.67
2022-08-20T05:49:07.932Z,15.60
2022-08-20T05:52:10.426Z,16.97
2022-08-20T05:55:13.448Z,14.52
2022-08-20T05:58:25.015Z,14.95
2022-08-20T06:01:27.509Z,14.90
2022-08-20T06:04:32.072Z,15.93
2022-08-20T06:07:34.643Z,14.57
2022-08-20T06:10:38.657Z,17.27
2022-08-20T06:13:44.978Z,18.92
2022-08-20T06:16:57.733Z,15.93
2022-08-20T06:20:05.031Z,19.40
2022-08-20T06:23:08.748Z,16.40
2022-08-20T06:26:11.481Z,19.08
2022-08-20T06:29:13.878Z,18.55
2022-08-20T06:32:16.879Z,19.50
2022-08-20T06:35:20.111Z,17.48
2022-08-20T06:38:23.207Z,13.77
2022-08-20T06:41:35.821Z,19.98
2022-08-20T06:44:38.812Z,14.02
2022-08-20T06:47:43.903Z,18.13
2022-08-20T06:50:47.959Z,14.52
2022-08-20T06:53:51.127Z,16.43
2022-08-20T06:56:54.700Z,16.65
2022-08-20T06:59:57.111Z,17.10
2022-08-20T07:03:03.478Z,14.70
2022-08-20T07:06:06.819Z,14.98
2022-08-20T07:09:09.329Z,17.90
2022-08-20T07:12:11.731Z,14.93
2022-08-20T07:15:15.069Z,17.15
2022-08-20T07:18:17.820Z,16.92
2022-08-20T07:21:30.941Z,17.08
2022-08-20T07:24:35.717Z,17.87
2022-08-20T07:27:40.752Z,15.43
2022-08-20T07:31:12.359Z,20.10
2022-08-20T07:34:16.284Z,17.55
2022-08-20T07:37:18.946Z,19.05
2022-08-20T07:40:28.041Z,19.27
2022-08-20T07:43:32.676Z,18.08
2022-08-20T07:46:35.279Z,18.30
2022-08-20T07:49:38.641Z,15.35
2022-08-20T07:52:41.062Z,16.90
2022-08-20T07:55:51.134Z,16.27
2022-08-20T07:59:02.323Z,14.52
2022-08-20T08:02:05.773Z,14.43
2022-08-20T08:05:08.574Z,13.45
2022-08-20T08:08:14.412Z,13.98
2022-08-20T08:11:17.178Z,11.03
2022-08-20T08:14:24.836Z,12.07
2022-08-20T08:17:28.569Z,12.13
2022-08-20T08:20:31.247Z,12.57
2022-08-20T08:23:34.963Z,10.93
2022-08-20T08:26:37.411Z,11.10
2022-08-20T08:29:40.085Z,8.63
2022-08-20T08:33:02.796Z,10.43
2022-08-20T08:36:09.837Z,8.90
2022-08-20T08:39:12.258Z,9.30
2022-08-20T08:42:27.177Z,8.97
2022-08-20T08:45:45.540Z,10.13
2022-08-20T08:48:50.785Z,10.50
2022-08-20T08:52:08.793Z,12.90
2022-08-20T08:55:19.827Z,9.30
2022-08-20T08:58:22.538Z,11.30
2022-08-20T09:01:56.244Z,9.18
2022-08-20T09:04:51.507Z,9.63
2022-08-20T09:07:54.348Z,9.27
2022-08-20T09:11:05.332Z,12.32
2022-08-20T09:14:07.694Z,11.03
2022-08-20T09:17:10.199Z,8.90
2022-08-20T09:20:12.796Z,8.98
2022-08-20T09:23:15.244Z,12.30
2022-08-20T09:26:17.977Z,9.52
2022-08-20T09:29:20.377Z,8.03
2022-08-20T09:32:24.850Z,7.88
2022-08-20T09:35:29.217Z,7.85
2022-08-20T09:38:32.839Z,8.23
2022-08-20T09:41:35.287Z,11.27
2022-08-20T09:44:38.243Z,12.37
2022-08-20T09:47:54.792Z,7.82
2022-08-20T09:50:59.436Z,9.85
2022-08-20T09:54:02.493Z,7.13
2022-08-20T09:57:07.384Z,7.93
2022-08-20T10:00:12.504Z,9.17
2022-08-20T10:03:15.401Z,8.95
2022-08-20T10:06:22.466Z,9.55
2022-08-20T10:09:24.847Z,10.75
2022-08-20T10:12:27.269Z,11.75
2022-08-20T10:15:31.139Z,7.53
2022-08-20T10:18:35.155Z,7.78
2022-08-20T10:21:39.057Z,8.82
2022-08-20T10:24:41.849Z,7.53
2022-08-20T10:27:44.783Z,10.88
2022-08-20T10:30:47.333Z,8.60
2022-08-20T10:33:49.751Z,9.20
2022-08-20T10:36:52.410Z,8.80
2022-08-20T10:39:55.339Z,9.10
2022-08-20T10:42:57.826Z,9.48
2022-08-20T10:46:00.631Z,9.23
2022-08-20T10:49:03.132Z,10.02
2022-08-20T10:52:06.026Z,7.78
2022-08-20T10:55:09.932Z,7.43
2022-08-20T10:58:13.298Z,6.20
2022-08-20T11:01:31.520Z,6.50
2022-08-20T11:04:36.158Z,7.53
2022-08-20T11:07:59.842Z,7.60
2022-08-20T11:11:02.438Z,6.28
2022-08-20T11:14:04.827Z,7.78
2022-08-20T11:17:07.767Z,6.07
2022-08-20T11:20:12.759Z,6.68
2022-08-20T11:23:18.202Z,7.82
2022-08-20T11:26:24.432Z,6.80
2022-08-20T11:29:29.968Z,7.72
2022-08-20T11:32:34.565Z,6.27
2022-08-20T11:35:49.585Z,6.38
2022-08-20T11:38:53.123Z,6.35
2022-08-20T11:41:55.859Z,6.57
2022-08-20T11:44:58.279Z,8.45
2022-08-20T11:48:00.636Z,8.07
2022-08-20T11:51:03.097Z,7.90
2022-08-20T11:54:05.846Z,7.22
2022-08-20T11:57:09.523Z,8.52
2022-08-20T12:00:20.364Z,6.30
2022-08-20T12:03:34.979Z,6.00
2022-08-20T12:06:37.426Z,5.72
2022-08-20T12:09:43.119Z,8.63
2022-08-20T12:12:54.612Z,6.80
2022-08-20T12:15:57.271Z,7.75
2022-08-20T12:18:59.665Z,8.27
2022-08-20T12:22:23.782Z,7.53
2022-08-20T12:25:25.233Z,6.97
2022-08-20T12:28:27.621Z,5.25
2022-08-20T12:31:30.120Z,6.65
2022-08-20T12:34:36.854Z,5.67
2022-08-20T12:37:39.991Z,5.82
2022-08-20T12:40:42.771Z,5.68
2022-08-20T12:43:45.180Z,5.18
2022-08-20T12:46:47.568Z,5.63
2022-08-20T12:50:01.125Z,4.87
2022-08-20T12:53:04.424Z,4.88
2022-08-20T12:56:06.951Z,6.53
2022-08-20T12:59:09.359Z,5.82
2022-08-20T13:02:15.741Z,6.15
2022-08-20T13:05:22.642Z,5.27
2022-08-20T13:08:25.012Z,5.82
2022-08-20T13:11:27.468Z,5.15
2022-08-20T13:14:30.309Z,4.90
2022-08-20T13:17:38.794Z,5.38
2022-08-20T13:20:42.012Z,7.30
2022-08-20T13:23:44.616Z,5.65
2022-08-20T13:26:47.380Z,6.78
2022-08-20T13:29:54.054Z,6.32
2022-08-20T13:33:00.387Z,5.00
2022-08-20T13:36:02.983Z,4.97
2022-08-20T13:39:06.902Z,6.05
2022-08-20T13:42:10.268Z,5.65
2022-08-20T13:45:13.320Z,5.80
2022-08-20T13:48:15.729Z,4.10
2022-08-20T13:51:19.090Z,4.07
2022-08-20T13:54:21.685Z,3.95
2022-08-20T13:57:25.511Z,5.50
2022-08-20T14:00:31.944Z,5.20
2022-08-20T14:03:35.244Z,5.13
2022-08-20T14:06:38.074Z,5.93
2022-08-20T14:09:42.118Z,4.40
2022-08-20T14:12:44.628Z,6.28
2022-08-20T14:15:47.289Z,5.05
2022-08-20T14:18:52.741Z,4.47
2022-08-20T14:21:55.355Z,6.07
2022-08-20T14:24:59.631Z,6.15
2022-08-20T14:28:19.551Z,4.70
2022-08-20T14:31:28.158Z,5.53
2022-08-20T14:34:30.871Z,6.88
2022-08-20T14:37:37.966Z,5.40
2022-08-20T14:40:40.384Z,5.85
2022-08-20T14:43:42.765Z,4.90
2022-08-20T14:46:45.158Z,6.30
2022-08-20T14:49:49.336Z,4.95
2022-08-20T14:52:52.697Z,4.80
2022-08-20T14:55:55.101Z,5.25
2022-08-20T14:58:57.486Z,7.00
2022-08-20T15:02:00.243Z,7.25
2022-08-20T15:05:04.471Z,6.90
2022-08-20T15:08:10.637Z,6.33
2022-08-20T15:11:13.832Z,6.18
2022-08-20T15:14:18.450Z,4.80
2022-08-20T15:17:27.984Z,6.22
2022-08-20T15:20:32.470Z,5.13
2022-08-20T15:23:34.868Z,5.83
2022-08-20T15:26:37.303Z,5.68
2022-08-20T15:29:40.131Z,6.25
2022-08-20T15:32:42.652Z,5.10
2022-08-20T15:35:45.127Z,6.10
2022-08-20T15:38:47.621Z,5.93
2022-08-20T15:41:49.981Z,5.65
2022-08-20T15:44:52.702Z,6.20
2022-08-20T15:48:13.078Z,6.72
2022-08-20T15:51:24.617Z,6.65
2022-08-20T15:54:28.340Z,6.37
2022-08-20T15:57:53.102Z,7.18
2022-08-20T16:01:24.789Z,5.40
2022-08-20T16:04:52.425Z,7.07
2022-08-20T16:08:25.288Z,5.90
2022-08-20T16:12:05.126Z,7.10
2022-08-20T16:15:18.893Z,7.25
2022-08-20T16:18:28.180Z,6.30
2022-08-20T16:21:34.336Z,6.70
2022-08-20T16:24:36.821Z,7.05
2022-08-20T16:28:00.138Z,8.30
2022-08-20T16:31:11.983Z,7.53
2022-08-20T16:34:32.887Z,5.40
2022-08-20T16:37:49.023Z,5.47
2022-08-20T16:41:20.181Z,6.38
2022-08-20T16:44:39.914Z,6.87
2022-08-20T16:47:42.442Z,5.55
2022-08-20T16:50:57.870Z,6.03
2022-08-20T16:54:00.334Z,7.13
2022-08-20T16:57:06.115Z,7.72
2022-08-20T17:00:29.412Z,8.07
2022-08-20T17:03:38.689Z,6.13
2022-08-20T17:06:48.367Z,6.53
2022-08-20T17:09:53.250Z,7.60
2022-08-20T17:13:00.013Z,7.93
2022-08-20T17:16:05.334Z,6.70
2022-08-20T17:19:27.233Z,7.93
2022-08-20T17:22:39.581Z,6.90
2022-08-20T17:25:42.266Z,7.97
2022-08-20T17:28:53.255Z,6.32
2022-08-20T17:32:15.269Z,7.47
2022-08-20T17:35:48.783Z,7.63
2022-08-20T17:38:54.252Z,8.10
2022-08-20T17:42:08.190Z,6.30
2022-08-20T17:45:22.767Z,9.40
2022-08-20T17:48:32.657Z,7.10
2022-08-20T17:51:38.649Z,8.43
2022-08-20T17:54:45.216Z,7.65
2022-08-20T17:57:53.242Z,7.18
2022-08-20T18:00:55.649Z,8.80
2022-08-20T18:03:58.214Z,8.90
2022-08-20T18:07:06.722Z,8.43
2022-08-20T18:10:23.652Z,8.88
2022-08-20T18:13:52.029Z,7.97
2022-08-20T18:17:31.761Z,7.65
2022-08-20T18:21:31.566Z,8.90
2022-08-20T18:24:42.415Z,8.73
2022-08-20T18:27:51.369Z,7.47
2022-08-20T18:31:00.382Z,8.85
2022-08-20T18:34:28.654Z,8.02
2022-08-20T18:37:33.147Z,9.43
2022-08-20T18:40:37.760Z,9.48
2022-08-20T18:43:41.124Z,9.93
2022-08-20T18:46:55.885Z,8.00
2022-08-20T18:50:18.472Z,9.18
2022-08-20T18:53:34.265Z,8.23
2022-08-20T18:56:42.332Z,9.20
2022-08-20T18:59:56.888Z,9.27
2022-08-20T19:03:08.513Z,10.27
2022-08-20T19:06:22.912Z,12.02
2022-08-20T19:09:37.059Z,12.50
2022-08-20T19:13:05.552Z,12.10
2022-08-20T19:16:18.713Z,18.80
2022-08-20T19:19:23.667Z,17.88
2022-08-20T19:22:27.339Z,20.58
2022-08-20T19:25:37.147Z,17.73
2022-08-20T19:28:50.411Z,17.63
2022-08-20T19:31:58.864Z,20.77
2022-08-20T19:35:06.236Z,13.80
2022-08-20T19:38:16.321Z,13.20
2022-08-20T19:41:48.755Z,12.20
2022-08-20T19:45:01.428Z,12.30
2022-08-20T19:48:14.296Z,10.13
2022-08-20T19:51:45.883Z,11.40
2022-08-20T19:54:53.969Z,11.60
2022-08-20T19:58:03.422Z,11.63
2022-08-20T20:01:11.732Z,11.07
2022-08-20T20:04:17.637Z,10.75
2022-08-20T20:07:24.761Z,12.15
2022-08-20T20:10:35.762Z,10.77
2022-08-20T20:13:38.574Z,10.47
2022-08-20T20:16:42.618Z,12.70
2022-08-20T20:19:48.855Z,12.18
2022-08-20T20:23:06.891Z,12.85
2022-08-20T20:26:16.863Z,9.38
2022-08-20T20:29:37.993Z,10.67
2022-08-20T20:32:44.330Z,10.13
2022-08-20T20:35:46.965Z,10.82
2022-08-20T20:38:58.517Z,11.82
2022-08-20T20:42:02.958Z,9.38
2022-08-20T20:45:32.903Z,8.20
2022-08-20T20:48:50.422Z,10.65
2022-08-20T20:52:15.206Z,9.63
2022-08-20T20:55:17.759Z,10.52
2022-08-20T20:58:20.135Z,10.57
2022-08-20T21:01:38.657Z,9.43
2022-08-20T21:04:49.564Z,10.93
2022-08-20T21:08:01.343Z,13.18
2022-08-20T21:11:03.798Z,12.25
2022-08-20T21:14:06.266Z,11.48
2022-08-20T21:17:11.574Z,12.73
2022-08-20T21:20:14.033Z,10.82
2022-08-20T21:23:16.699Z,10.32
2022-08-20T21:26:19.161Z,9.73
2022-08-20T21:29:28.103Z,13.07
2022-08-20T21:32:34.288Z,11.27
2022-08-20T21:35:36.686Z,9.75
2022-08-20T21:38:39.185Z,11.32
2022-08-20T21:41:42.828Z,12.77
2022-08-20T21:44:49.331Z,11.63
2022-08-20T21:47:52.236Z,12.83
2022-08-20T21:50:54.652Z,10.73
2022-08-20T21:53:57.048Z,11.88
2022-08-20T21:57:06.292Z,9.00
2022-08-20T22:00:46.639Z,8.27
2022-08-20T22:03:49.546Z,11.90
2022-08-20T22:06:54.450Z,9.02
2022-08-20T22:09:56.857Z,9.65
2022-08-20T22:12:59.308Z,9.07
2022-08-20T22:16:08.991Z,9.30
2022-08-20T22:19:15.940Z,8.77
2022-08-20T22:22:20.588Z,9.63
2022-08-20T22:25:23.469Z,9.38
2022-08-20T22:28:26.651Z,10.45
2022-08-20T22:31:31.744Z,9.57
2022-08-20T22:34:41.747Z,9.37
2022-08-20T22:37:44.221Z,9.27
2022-08-20T22:40:46.679Z,8.75
2022-08-20T22:43:55.829Z,9.52
2022-08-20T22:47:02.872Z,8.77
2022-08-20T22:50:07.881Z,9.90
2022-08-20T22:53:11.550Z,7.50
2022-08-20T22:56:19.948Z,9.82
2022-08-20T22:59:25.020Z,8.07
2022-08-20T23:02:28.034Z,11.32
2022-08-20T23:05:33.089Z,9.33
2022-08-20T23:08:35.514Z,10.27
2022-08-20T23:11:38.028Z,9.52
2022-08-20T23:14:40.452Z,8.95
2022-08-20T23:17:43.163Z,9.70
2022-08-20T23:20:51.680Z,9.83
2022-08-20T23:23:54.185Z,8.45
2022-08-20T23:26:57.271Z,8.88
2022-08-20T23:29:59.657Z,7.72
2022-08-20T23:33:03.570Z,7.88
2022-08-20T23:36:09.169Z,7.87
2022-08-20T23:39:11.796Z,9.27
2022-08-20T23:42:14.556Z,7.32
2022-08-20T23:45:17.330Z,6.93
2022-08-20T23:48:19.758Z,7.72
2022-08-20T23:51:22.151Z,9.57
2022-08-20T23:54:24.544Z,7.68
2022-08-20T23:57:26.932Z,7.18
